createdAt,value
2023-01-02T00:00:51.524Z,9.06
2023-01-02T00:01:55.060Z,9.08
2023-01-02T00:03:14.287Z,9.07
2023-01-02T00:04:21.915Z,9.07
2023-01-02T00:05:34.868Z,9.08
2023-01-02T00:06:59.695Z,9.08
2023-01-02T00:08:17.953Z,9.06
2023-01-02T00:09:22.108Z,9.06
2023-01-02T00:10:30.231Z,9.06
2023-01-02T00:11:34.356Z,9.06
2023-01-02T00:12:38.116Z,9.05
2023-01-02T00:13:48.121Z,9.06
2023-01-02T00:14:51.943Z,9.06
2023-01-02T00:17:35.878Z,9.06
2023-01-02T00:18:46.266Z,9.07
2023-01-02T00:19:52.180Z,9.07
2023-01-02T00:20:58.238Z,9.07
2023-01-02T00:22:13.797Z,9.07
2023-01-02T00:23:21.109Z,9.06
2023-01-02T00:24:25.068Z,9.06
2023-01-02T00:25:39.251Z,9.06
2023-01-02T00:26:43.736Z,9.04
2023-01-02T00:27:54.059Z,9.05
2023-01-02T00:28:58.488Z,9.04
2023-01-02T00:30:05.464Z,9.03
2023-01-02T00:31:14.241Z,9.02
2023-01-02T00:32:19.642Z,9.02
2023-01-02T00:33:24.658Z,8.99
2023-01-02T00:34:30.287Z,9.00
2023-01-02T00:35:41.983Z,9.00
2023-01-02T00:36:54.037Z,9.00
2023-01-02T00:37:58.168Z,8.97
2023-01-02T00:39:03.780Z,8.98
2023-01-02T00:40:15.447Z,8.95
2023-01-02T00:41:25.240Z,8.95
2023-01-02T00:42:32.781Z,8.94
2023-01-02T00:43:38.766Z,8.94
2023-01-02T00:44:42.249Z,8.92
2023-01-02T00:45:48.973Z,8.92
2023-01-02T00:46:52.869Z,8.89
2023-01-02T00:48:07.025Z,8.89
2023-01-02T00:49:13.141Z,8.90
2023-01-02T00:50:28.568Z,8.87
2023-01-02T00:51:32.506Z,8.87
2023-01-02T00:52:42.470Z,8.84
2023-01-02T00:53:52.125Z,8.86
2023-01-02T00:54:57.434Z,8.81
2023-01-02T00:56:01.239Z,8.83
2023-01-02T00:57:13.235Z,8.83
2023-01-02T00:58:20.084Z,8.82
2023-01-02T00:59:25.385Z,8.83
2023-01-02T01:00:29.752Z,8.82
2023-01-02T01:01:35.910Z,8.82
2023-01-02T01:02:42.863Z,8.82
2023-01-02T01:03:55.870Z,8.82
2023-01-02T01:04:59.784Z,8.83
2023-01-02T01:06:17.639Z,8.84
2023-01-02T01:07:21.633Z,8.84
2023-01-02T01:08:26.271Z,8.84
2023-01-02T01:09:30.262Z,8.83
2023-01-02T01:10:38.783Z,8.82
2023-01-02T01:11:42.459Z,8.81
2023-01-02T01:12:46.183Z,8.76
2023-01-02T01:13:51.978Z,8.76
2023-01-02T01:14:58.898Z,8.74
2023-01-02T01:16:16.373Z,8.72
2023-01-02T01:17:32.310Z,8.72
2023-01-02T01:18:38.658Z,8.70
2023-01-02T01:19:51.819Z,8.66
2023-01-02T01:20:56.020Z,8.59
2023-01-02T01:22:01.020Z,8.63
2023-01-02T01:23:10.571Z,8.61
2023-01-02T01:24:23.660Z,8.60
2023-01-02T01:25:27.805Z,8.59
2023-01-02T01:26:32.491Z,8.50
2023-01-02T01:27:38.918Z,8.51
2023-01-02T01:28:44.128Z,8.51
2023-01-02T01:29:47.900Z,8.49
2023-01-02T01:30:51.989Z,8.49
2023-01-02T01:31:59.192Z,8.47
2023-01-02T01:33:16.440Z,8.44
2023-01-02T01:34:22.710Z,8.40
2023-01-02T01:35:29.027Z,8.40
2023-01-02T01:36:35.304Z,8.38
2023-01-02T01:37:40.340Z,8.35
2023-01-02T01:38:45.295Z,8.33
2023-01-02T01:39:56.139Z,8.33
2023-01-02T01:41:03.898Z,8.30
2023-01-02T01:42:15.616Z,8.28
2023-01-02T01:43:46.553Z,8.24
2023-01-02T01:44:55.638Z,8.23
2023-01-02T01:45:59.087Z,8.19
2023-01-02T01:47:03.114Z,8.17
2023-01-02T01:48:14.349Z,8.14
2023-01-02T01:49:28.951Z,8.13
2023-01-02T01:50:36.228Z,8.13
2023-01-02T01:51:50.597Z,8.14
2023-01-02T01:53:18.863Z,8.13
2023-01-02T01:54:47.236Z,8.10
2023-01-02T01:56:02.139Z,8.09
2023-01-02T01:57:46.138Z,8.09
2023-01-02T01:58:50.512Z,8.08
2023-01-02T01:59:59.019Z,8.07
2023-01-02T02:01:04.277Z,8.07
2023-01-02T02:02:16.836Z,8.07
2023-01-02T02:03:29.958Z,8.06
2023-01-02T02:04:35.388Z,8.03
2023-01-02T02:05:42.518Z,8.01
2023-01-02T02:06:48.091Z,7.99
2023-01-02T02:08:14.851Z,7.99
2023-01-02T02:09:34.197Z,7.94
2023-01-02T02:10:39.665Z,7.92
2023-01-02T02:11:44.918Z,7.90
2023-01-02T02:12:50.593Z,7.89
2023-01-02T02:14:00.891Z,7.86
2023-01-02T02:15:37.010Z,7.81
2023-01-02T02:17:20.304Z,7.81
2023-01-02T02:19:12.790Z,7.73
2023-01-02T02:20:35.707Z,7.68
2023-01-02T02:22:00.107Z,7.67
2023-01-02T02:23:53.909Z,7.64
2023-01-02T02:25:30.987Z,7.61
2023-01-02T02:26:49.761Z,7.59
2023-01-02T02:28:46.825Z,7.56
2023-01-02T02:30:17.650Z,7.50
2023-01-02T02:31:51.648Z,7.47
2023-01-02T02:33:33.276Z,7.45
2023-01-02T02:34:54.851Z,7.45
2023-01-02T02:36:31.080Z,7.45
2023-01-02T02:38:13.799Z,7.41
2023-01-02T02:39:42.247Z,7.42
2023-01-02T02:41:29.385Z,7.42
2023-01-02T02:43:11.761Z,7.42
2023-01-02T02:45:20.204Z,7.40
2023-01-02T02:46:43.269Z,7.34
2023-01-02T02:48:13.761Z,7.35
2023-01-02T02:49:26.146Z,7.34
2023-01-02T02:50:42.224Z,7.32
2023-01-02T02:52:37.554Z,7.29
2023-01-02T02:53:51.113Z,7.29
2023-01-02T02:55:04.921Z,7.31
2023-01-02T02:56:18.918Z,7.29
2023-01-02T02:57:27.084Z,7.30
2023-01-02T02:58:32.479Z,7.29
2023-01-02T02:59:41.884Z,7.29
2023-01-02T03:00:45.876Z,7.28
2023-01-02T03:01:51.931Z,7.29
2023-01-02T03:02:59.916Z,7.28
2023-01-02T03:04:23.813Z,7.28
2023-01-02T03:06:18.200Z,7.27
2023-01-02T03:08:19.373Z,7.27
2023-01-02T03:09:59.152Z,7.26
2023-01-02T03:11:26.100Z,7.25
2023-01-02T03:12:49.136Z,7.26
2023-01-02T03:14:15.784Z,7.24
2023-01-02T03:15:43.320Z,7.18
2023-01-02T03:16:54.743Z,7.18
2023-01-02T03:18:11.847Z,7.15
2023-01-02T03:19:43.907Z,7.08
2023-01-02T03:21:31.352Z,6.96
2023-01-02T03:22:45.101Z,6.90
2023-01-02T03:23:49.651Z,6.95
2023-01-02T03:24:57.243Z,6.89
2023-01-02T03:26:03.604Z,6.83
2023-01-02T03:27:16.002Z,6.88
2023-01-02T03:28:32.629Z,6.86
2023-01-02T03:29:50.023Z,6.89
2023-01-02T03:31:07.193Z,6.91
2023-01-02T03:32:39.967Z,6.89
2023-01-02T03:34:02.014Z,6.87
2023-01-02T03:35:31.049Z,6.84
2023-01-02T03:36:43.748Z,6.78
2023-01-02T03:37:59.649Z,6.74
2023-01-02T03:39:35.202Z,6.75
2023-01-02T03:41:25.556Z,6.74
2023-01-02T03:43:31.032Z,6.71
2023-01-02T03:44:47.631Z,6.72
2023-01-02T03:46:11.956Z,6.74
2023-01-02T03:47:57.325Z,6.73
2023-01-02T03:49:15.146Z,6.69
2023-01-02T03:50:31.512Z,6.69
2023-01-02T03:51:38.234Z,6.69
2023-01-02T03:52:42.750Z,6.70
2023-01-02T03:53:50.425Z,6.69
2023-01-02T03:55:04.394Z,6.67
2023-01-02T03:57:19.827Z,6.64
2023-01-02T03:58:52.172Z,6.63
2023-01-02T04:00:23.643Z,6.61
2023-01-02T04:01:58.415Z,6.59
2023-01-02T04:03:28.673Z,6.59
2023-01-02T04:04:55.775Z,6.56
2023-01-02T04:06:33.632Z,6.57
2023-01-02T04:09:48.826Z,6.54
2023-01-02T04:11:02.664Z,6.54
2023-01-02T04:12:18.912Z,6.54
2023-01-02T04:13:41.950Z,6.52
2023-01-02T04:15:22.953Z,6.52
2023-01-02T04:16:40.121Z,6.51
2023-01-02T04:18:25.485Z,6.49
2023-01-02T04:19:46.147Z,6.47
2023-01-02T04:20:55.593Z,6.47
2023-01-02T04:22:14.607Z,6.48
2023-01-02T04:24:00.865Z,6.43
2023-01-02T04:25:16.585Z,6.41
2023-01-02T04:26:45.662Z,6.39
2023-01-02T04:28:18.228Z,6.40
2023-01-02T04:29:22.644Z,6.38
2023-01-02T04:30:31.804Z,6.38
2023-01-02T04:31:56.411Z,6.38
2023-01-02T04:33:18.073Z,6.31
2023-01-02T04:34:31.013Z,6.24
2023-01-02T04:35:35.770Z,6.26
2023-01-02T04:36:41.467Z,6.29
2023-01-02T04:37:48.014Z,6.29
2023-01-02T04:38:58.563Z,6.29
2023-01-02T04:40:22.699Z,6.30
2023-01-02T04:41:27.277Z,6.31
2023-01-02T04:42:41.348Z,6.25
2023-01-02T04:44:00.788Z,6.23
2023-01-02T04:45:13.470Z,6.26
2023-01-02T04:46:29.303Z,6.26
2023-01-02T04:47:34.111Z,6.24
2023-01-02T04:48:37.641Z,6.22
2023-01-02T04:49:48.614Z,6.28
2023-01-02T04:50:55.426Z,6.26
2023-01-02T04:52:03.558Z,6.25
2023-01-02T04:53:11.606Z,6.25
2023-01-02T04:54:20.436Z,6.25
2023-01-02T04:55:27.530Z,6.25
2023-01-02T04:56:33.038Z,6.26
2023-01-02T04:57:37.980Z,6.25
2023-01-02T04:58:46.201Z,6.26
2023-01-02T04:59:49.690Z,6.26
2023-01-02T05:00:54.614Z,6.25
2023-01-02T05:01:58.863Z,6.22
2023-01-02T05:03:15.167Z,6.24
2023-01-02T05:04:19.584Z,6.18
2023-01-02T05:05:23.887Z,5.98
2023-01-02T05:06:33.278Z,6.02
2023-01-02T05:07:51.409Z,6.05
2023-01-02T05:08:59.496Z,6.04
2023-01-02T05:10:03.744Z,6.07
2023-01-02T05:11:16.517Z,6.10
2023-01-02T05:12:21.172Z,6.11
2023-01-02T05:13:25.855Z,6.14
2023-01-02T05:14:34.743Z,6.13
2023-01-02T05:15:38.470Z,6.09
2023-01-02T05:16:45.959Z,6.08
2023-01-02T05:17:50.507Z,6.10
2023-01-02T05:18:54.859Z,6.10
2023-01-02T05:20:14.524Z,6.07
2023-01-02T05:22:05.017Z,6.04
2023-01-02T05:23:51.741Z,5.90
2023-01-02T05:25:40.966Z,5.97
2023-01-02T05:28:18.053Z,5.98
2023-01-02T05:29:35.195Z,6.01
2023-01-02T05:30:50.234Z,6.05
2023-01-02T05:31:55.306Z,6.05
2023-01-02T05:33:02.847Z,6.10
2023-01-02T05:34:16.429Z,6.13
2023-01-02T05:35:27.073Z,6.15
2023-01-02T05:36:37.236Z,6.15
2023-01-02T05:37:52.723Z,6.17
2023-01-02T05:39:05.805Z,6.19
2023-01-02T05:40:33.055Z,6.18
2023-01-02T05:41:39.706Z,6.18
2023-01-02T05:42:47.670Z,6.21
2023-01-02T05:43:51.813Z,6.20
2023-01-02T05:44:55.869Z,6.20
2023-01-02T05:46:09.225Z,6.20
2023-01-02T05:47:21.074Z,6.21
2023-01-02T05:48:25.175Z,6.19
2023-01-02T05:49:30.374Z,6.20
2023-01-02T05:50:35.175Z,6.20
2023-01-02T05:51:42.047Z,6.20
2023-01-02T05:52:56.436Z,6.21
2023-01-02T05:54:20.201Z,6.21
2023-01-02T05:55:25.947Z,6.19
2023-01-02T05:56:39.669Z,6.19
2023-01-02T05:57:49.087Z,6.18
2023-01-02T06:01:08.480Z,6.18
2023-01-02T06:02:26.856Z,6.17
2023-01-02T06:03:33.481Z,6.16
2023-01-02T06:04:39.119Z,6.16
2023-01-02T06:05:42.827Z,6.16
2023-01-02T06:06:48.533Z,6.16
2023-01-02T06:07:52.217Z,6.17
2023-01-02T06:08:56.478Z,6.16
2023-01-02T06:10:11.544Z,6.16
2023-01-02T06:11:33.633Z,6.14
2023-01-02T06:12:37.342Z,6.14
2023-01-02T06:13:52.138Z,6.17
2023-01-02T06:14:58.653Z,6.15
2023-01-02T06:16:15.269Z,6.14
2023-01-02T06:17:19.327Z,6.13
2023-01-02T06:18:32.816Z,6.14
2023-01-02T06:19:40.905Z,6.12
2023-01-02T06:20:44.607Z,6.11
2023-01-02T06:21:48.978Z,6.08
2023-01-02T06:22:52.878Z,6.08
2023-01-02T06:24:00.159Z,6.07
2023-01-02T06:25:14.490Z,6.09
2023-01-02T06:26:38.296Z,6.07
2023-01-02T06:27:49.789Z,6.09
2023-01-02T06:29:07.598Z,6.08
2023-01-02T06:30:23.820Z,6.09
2023-01-02T06:31:42.493Z,6.09
2023-01-02T06:32:49.013Z,6.05
2023-01-02T06:34:04.923Z,6.07
2023-01-02T06:35:09.617Z,6.08
2023-01-02T06:36:19.037Z,6.07
2023-01-02T06:37:22.883Z,6.08
2023-01-02T06:38:29.482Z,6.11
2023-01-02T06:39:33.549Z,6.08
2023-01-02T06:40:40.603Z,6.09
2023-01-02T06:41:47.645Z,6.09
2023-01-02T06:43:09.553Z,6.11
2023-01-02T06:44:14.000Z,6.10
2023-01-02T06:45:24.044Z,6.09
2023-01-02T06:46:34.581Z,6.08
2023-01-02T06:48:03.267Z,6.09
2023-01-02T06:49:14.327Z,6.11
2023-01-02T06:50:23.918Z,6.09
2023-01-02T06:51:29.415Z,6.08
2023-01-02T06:52:33.539Z,6.12
2023-01-02T06:53:45.217Z,6.15
2023-01-02T06:54:58.987Z,6.16
2023-01-02T06:56:11.826Z,6.19
2023-01-02T06:57:28.846Z,6.14
2023-01-02T06:58:36.379Z,6.17
2023-01-02T06:59:40.752Z,6.16
2023-01-02T07:00:46.211Z,6.19
2023-01-02T07:01:51.365Z,6.17
2023-01-02T07:02:57.895Z,6.11
2023-01-02T07:04:04.452Z,6.07
2023-01-02T07:05:10.986Z,6.11
2023-01-02T07:06:20.695Z,6.14
2023-01-02T07:07:24.718Z,6.14
2023-01-02T07:08:37.205Z,6.16
2023-01-02T07:09:40.654Z,6.05
2023-01-02T07:10:53.120Z,6.09
2023-01-02T07:12:25.839Z,6.16
2023-01-02T07:13:34.807Z,6.21
2023-01-02T07:14:39.263Z,6.22
2023-01-02T07:15:46.284Z,6.25
2023-01-02T07:16:53.962Z,6.22
2023-01-02T07:18:00.821Z,6.24
2023-01-02T07:19:12.218Z,6.25
2023-01-02T07:20:16.769Z,6.25
2023-01-02T07:21:27.231Z,6.23
2023-01-02T07:22:35.373Z,6.26
2023-01-02T07:23:39.082Z,6.32
2023-01-02T07:24:46.759Z,6.35
2023-01-02T07:26:02.922Z,6.34
2023-01-02T07:27:08.363Z,6.32
2023-01-02T07:28:13.459Z,6.38
2023-01-02T07:29:19.176Z,6.41
2023-01-02T07:30:40.959Z,6.47
2023-01-02T07:31:56.519Z,6.50
2023-01-02T07:33:03.541Z,6.51
2023-01-02T07:34:11.057Z,6.55
2023-01-02T07:35:16.720Z,6.58
2023-01-02T07:36:28.095Z,6.61
2023-01-02T07:37:32.598Z,6.64
2023-01-02T07:38:39.537Z,6.68
2023-01-02T07:39:44.594Z,6.71
2023-01-02T07:40:50.331Z,6.76
2023-01-02T07:41:54.717Z,6.80
2023-01-02T07:42:58.995Z,6.82
2023-01-02T07:44:04.104Z,6.83
2023-01-02T07:45:15.853Z,6.86
2023-01-02T07:46:21.656Z,6.86
2023-01-02T07:47:32.977Z,6.90
2023-01-02T07:48:37.202Z,6.93
2023-01-02T07:49:43.569Z,6.95
2023-01-02T07:50:47.394Z,6.95
2023-01-02T07:51:54.967Z,6.99
2023-01-02T07:52:58.909Z,7.01
2023-01-02T07:54:26.904Z,7.01
2023-01-02T07:55:31.787Z,7.04
2023-01-02T07:56:35.311Z,7.08
2023-01-02T07:57:39.092Z,7.09
2023-01-02T07:58:44.218Z,7.09
2023-01-02T07:59:50.395Z,7.09
2023-01-02T08:01:01.488Z,7.11
2023-01-02T08:02:15.476Z,7.14
2023-01-02T08:03:42.847Z,7.14
2023-01-02T08:04:52.482Z,7.17
2023-01-02T08:06:02.975Z,7.14
2023-01-02T08:07:07.483Z,7.17
2023-01-02T08:08:11.041Z,7.20
2023-01-02T08:09:16.141Z,7.24
2023-01-02T08:10:20.813Z,7.26
2023-01-02T08:11:28.493Z,7.31
2023-01-02T08:12:32.052Z,7.33
2023-01-02T08:13:46.625Z,7.38
2023-01-02T08:14:55.081Z,7.41
2023-01-02T08:16:04.982Z,7.40
2023-01-02T08:17:08.510Z,7.44
2023-01-02T08:18:14.164Z,7.50
2023-01-02T08:19:18.028Z,7.53
2023-01-02T08:20:25.037Z,7.57
2023-01-02T08:21:31.781Z,7.62
2023-01-02T08:22:36.052Z,7.65
2023-01-02T08:23:41.645Z,7.66
2023-01-02T08:24:51.790Z,7.67
2023-01-02T08:26:05.776Z,7.70
2023-01-02T08:27:09.357Z,7.71
2023-01-02T08:28:14.218Z,7.75
2023-01-02T08:29:18.909Z,7.79
2023-01-02T08:30:26.819Z,7.82
2023-01-02T08:31:43.360Z,7.82
2023-01-02T08:32:48.961Z,7.84
2023-01-02T08:34:02.625Z,7.89
2023-01-02T08:35:10.963Z,7.89
2023-01-02T08:36:16.230Z,7.92
2023-01-02T08:37:21.641Z,7.94
2023-01-02T08:38:26.230Z,7.97
2023-01-02T08:39:31.290Z,7.98
2023-01-02T08:40:36.441Z,8.01
2023-01-02T08:41:43.087Z,8.04
2023-01-02T09:18:58.506Z,8.54
2023-01-02T09:20:03.144Z,8.55
2023-01-02T09:21:08.974Z,8.65
2023-01-02T09:22:20.842Z,8.70
2023-01-02T09:23:24.517Z,8.69
2023-01-02T09:24:32.416Z,8.72
2023-01-02T09:25:36.144Z,8.77
2023-01-02T09:26:41.984Z,8.80
2023-01-02T09:27:46.611Z,8.87
2023-01-02T09:28:58.503Z,8.87
2023-01-02T09:30:06.887Z,8.94
2023-01-02T09:31:18.902Z,8.98
2023-01-02T09:32:22.769Z,9.00
2023-01-02T09:33:39.073Z,9.03
2023-01-02T09:34:48.737Z,9.06
2023-01-02T09:36:11.534Z,9.07
2023-01-02T09:37:26.129Z,9.10
2023-01-02T09:38:40.373Z,9.13
2023-01-02T09:39:56.629Z,9.13
2023-01-02T09:41:26.801Z,9.16
2023-01-02T09:42:53.582Z,9.17
2023-01-02T09:44:21.949Z,9.18
2023-01-02T09:45:26.873Z,9.21
2023-01-02T09:46:43.518Z,9.22
2023-01-02T09:48:00.268Z,9.28
2023-01-02T09:49:44.527Z,9.30
2023-01-02T09:51:07.200Z,9.28
2023-01-02T09:52:34.444Z,9.38
2023-01-02T09:53:59.548Z,9.39
2023-01-02T09:56:22.678Z,9.45
2023-01-02T09:57:28.284Z,9.51
2023-01-02T09:59:27.439Z,9.56
2023-01-02T10:00:38.947Z,9.62
2023-01-02T10:02:26.529Z,9.72
2023-01-02T10:04:20.072Z,9.78
2023-01-02T10:05:39.008Z,9.92
2023-01-02T10:06:59.176Z,9.99
2023-01-02T10:08:32.214Z,10.04
2023-01-02T10:10:15.041Z,10.10
2023-01-02T10:11:57.394Z,10.13
2023-01-02T10:13:21.232Z,10.17
2023-01-02T10:15:00.527Z,10.20
2023-01-02T10:16:20.048Z,10.21
2023-01-02T10:17:42.833Z,10.23
2023-01-02T10:18:58.128Z,10.26
2023-01-02T10:20:57.420Z,10.29
2023-01-02T10:22:44.268Z,10.30
2023-01-02T10:24:15.756Z,10.32
2023-01-02T10:26:13.225Z,10.33
2023-01-02T10:28:26.407Z,10.38
2023-01-02T10:29:43.724Z,10.38
2023-01-02T10:31:01.363Z,10.35
2023-01-02T10:32:20.103Z,10.37
2023-01-02T10:34:01.483Z,10.43
2023-01-02T10:35:09.706Z,10.46
2023-01-02T10:36:31.325Z,10.48
2023-01-02T10:37:36.203Z,10.50
2023-01-02T10:38:40.141Z,10.54
2023-01-02T10:39:49.569Z,10.55
2023-01-02T10:40:58.891Z,10.57
2023-01-02T10:42:05.396Z,10.56
2023-01-02T10:43:11.196Z,10.59
2023-01-02T10:44:34.110Z,10.61
2023-01-02T10:45:48.515Z,10.64
2023-01-02T10:47:10.681Z,10.69
2023-01-02T10:48:18.586Z,10.66
2023-01-02T10:49:25.827Z,10.73
2023-01-02T10:50:50.045Z,10.80
2023-01-02T10:52:29.791Z,10.88
2023-01-02T10:53:38.730Z,10.87
2023-01-02T10:55:00.070Z,10.92
2023-01-02T10:56:24.643Z,11.01
2023-01-02T10:57:45.455Z,11.07
2023-01-02T10:59:21.919Z,11.12
2023-01-02T11:00:32.731Z,11.16
2023-01-02T11:01:58.805Z,11.21
2023-01-02T11:03:29.374Z,11.26
2023-01-02T11:04:42.133Z,11.29
2023-01-02T11:06:26.899Z,11.32
2023-01-02T11:07:32.083Z,11.37
2023-01-02T11:08:41.039Z,11.42
2023-01-02T11:09:58.233Z,11.47
2023-01-02T11:11:02.427Z,11.49
2023-01-02T11:12:15.037Z,11.54
2023-01-02T11:13:22.271Z,11.58
2023-01-02T11:14:35.431Z,11.60
2023-01-02T11:16:04.554Z,11.61
2023-01-02T11:17:18.419Z,11.62
2023-01-02T11:18:34.799Z,11.69
2023-01-02T11:19:45.321Z,11.72
2023-01-02T11:20:55.218Z,11.72
2023-01-02T11:21:58.821Z,11.75
2023-01-02T11:23:08.553Z,11.80
2023-01-02T11:24:19.627Z,11.85
2023-01-02T11:25:41.482Z,11.93
2023-01-02T11:26:50.051Z,11.94
2023-01-02T11:27:59.999Z,11.98
2023-01-02T11:29:47.369Z,12.05
2023-01-02T11:31:02.581Z,12.09
2023-01-02T11:32:36.342Z,12.11
2023-01-02T11:33:47.134Z,12.17
2023-01-02T11:35:02.876Z,12.21
2023-01-02T11:36:21.816Z,12.26
2023-01-02T11:37:29.868Z,12.30
2023-01-02T11:38:50.087Z,12.33
2023-01-02T11:40:07.305Z,12.29
2023-01-02T11:42:19.172Z,12.34
2023-01-02T11:43:49.502Z,12.36
2023-01-02T11:45:12.079Z,12.39
2023-01-02T11:46:39.555Z,12.45
2023-01-02T11:47:57.056Z,12.40
2023-01-02T11:49:13.349Z,12.43
2023-01-02T11:50:46.872Z,12.46
2023-01-02T11:52:03.226Z,12.47
2023-01-02T11:53:30.024Z,12.49
2023-01-02T11:55:05.016Z,12.52
2023-01-02T11:56:37.242Z,12.52
2023-01-02T11:57:59.972Z,12.55
2023-01-02T11:59:24.159Z,12.58
2023-01-02T12:00:35.295Z,12.60
2023-01-02T12:02:05.420Z,12.61
2023-01-02T12:03:22.902Z,12.61
2023-01-02T12:04:27.178Z,12.64
2023-01-02T12:06:19.189Z,12.68
2023-01-02T12:07:44.140Z,12.71
2023-01-02T12:10:45.981Z,12.80
2023-01-02T12:12:34.711Z,12.83
2023-01-02T12:14:41.029Z,12.86
2023-01-02T12:16:09.151Z,12.89
2023-01-02T12:17:57.360Z,12.92
2023-01-02T12:19:29.018Z,12.95
2023-01-02T12:21:12.023Z,12.97
2023-01-02T12:22:29.518Z,12.97
2023-01-02T12:23:53.286Z,13.00
2023-01-02T12:25:28.143Z,13.03
2023-01-02T12:27:22.496Z,13.07
2023-01-02T12:28:52.774Z,13.08
2023-01-02T12:30:21.352Z,13.12
2023-01-02T12:31:40.518Z,13.12
2023-01-02T12:33:23.475Z,13.13
2023-01-02T12:34:52.418Z,13.13
2023-01-02T12:36:08.577Z,13.17
2023-01-02T12:37:30.514Z,13.20
2023-01-02T12:39:03.268Z,13.21
2023-01-02T12:40:19.264Z,13.24
2023-01-02T12:42:01.838Z,13.26
2023-01-02T12:43:59.551Z,13.27
2023-01-02T12:45:34.528Z,13.28
2023-01-02T12:47:21.643Z,13.30
2023-01-02T12:50:49.772Z,13.42
2023-01-02T12:54:33.946Z,13.50
2023-01-02T12:56:47.875Z,13.54
2023-01-02T12:59:38.683Z,13.56
2023-01-02T13:05:29.153Z,13.60
2023-01-02T13:08:14.419Z,13.66
2023-01-02T15:24:34.414Z,12.14
2023-01-02T15:25:42.140Z,12.12
2023-01-02T15:26:45.896Z,12.09
2023-01-02T15:27:54.445Z,12.07
2023-01-02T15:29:05.970Z,12.03
2023-01-02T15:30:31.133Z,12.02
2023-01-02T15:31:41.049Z,11.98
2023-01-02T15:33:01.597Z,11.95
2023-01-02T15:34:05.352Z,11.88
2023-01-02T15:35:24.638Z,11.86
2023-01-02T15:36:38.367Z,11.82
2023-01-02T15:37:47.873Z,11.78
2023-01-02T15:38:52.268Z,11.75
2023-01-02T15:39:59.050Z,11.74
2023-01-02T15:41:04.179Z,11.69
2023-01-02T15:42:34.688Z,11.69
2023-01-02T15:43:58.726Z,11.65
2023-01-02T15:45:13.647Z,11.57
2023-01-02T15:46:18.090Z,11.57
2023-01-02T15:47:27.866Z,11.55
2023-01-02T15:48:39.968Z,11.54
2023-01-02T15:49:45.796Z,11.52
2023-01-02T15:50:53.174Z,11.52
2023-01-02T15:52:02.034Z,11.51
2023-01-02T15:53:43.238Z,11.47
2023-01-02T15:54:48.572Z,11.42
2023-01-02T15:55:52.162Z,11.38
2023-01-02T15:57:13.001Z,11.39
2023-01-02T15:58:16.473Z,11.38
2023-01-02T15:59:39.098Z,11.36
2023-01-02T16:00:46.254Z,11.34
2023-01-02T16:01:49.883Z,11.29
2023-01-02T16:02:56.711Z,11.27
2023-01-02T16:04:34.224Z,11.26
2023-01-02T16:05:55.932Z,11.24
2023-01-02T16:07:32.209Z,11.21
2023-01-02T16:08:38.870Z,11.18
2023-01-02T16:09:59.164Z,11.18
2023-01-02T16:11:03.767Z,11.15
2023-01-02T16:12:24.618Z,11.14
2023-01-02T16:14:14.694Z,11.13
2023-01-02T16:15:31.189Z,11.10
2023-01-02T16:16:58.932Z,11.08
2023-01-02T16:20:29.247Z,11.01
2023-01-02T16:21:37.134Z,11.01
2023-01-02T16:23:11.827Z,11.00
2023-01-02T16:24:25.066Z,10.98
2023-01-02T16:25:47.246Z,10.91
2023-01-02T16:26:51.610Z,10.84
2023-01-02T16:28:35.664Z,10.81
2023-01-02T16:29:46.325Z,10.84
2023-01-02T16:31:21.509Z,10.87
2023-01-02T16:32:32.648Z,10.86
2023-01-02T16:33:36.570Z,10.87
2023-01-02T16:34:45.999Z,10.86
2023-01-02T16:36:18.952Z,10.87
2023-01-02T16:38:03.856Z,10.84
2023-01-02T16:39:45.342Z,10.80
2023-01-02T16:40:59.752Z,10.77
2023-01-02T16:42:36.659Z,10.78
2023-01-02T16:43:46.860Z,10.77
2023-01-02T16:44:56.142Z,10.78
2023-01-02T16:46:00.142Z,10.78
2023-01-02T16:47:03.670Z,10.78
2023-01-02T16:48:14.896Z,10.76
2023-01-02T16:49:23.140Z,10.76
2023-01-02T16:50:29.968Z,10.76
2023-01-02T16:51:33.967Z,10.75
2023-01-02T16:52:38.160Z,10.75
2023-01-02T16:53:45.654Z,10.74
2023-01-02T16:54:54.123Z,10.73
2023-01-02T16:56:02.226Z,10.72
2023-01-02T16:57:18.367Z,10.70
2023-01-02T16:58:23.160Z,10.70
2023-01-02T16:59:27.385Z,10.69
2023-01-02T17:00:31.139Z,10.67
2023-01-02T17:01:34.881Z,10.66
2023-01-02T17:02:39.054Z,10.65
2023-01-02T17:03:43.263Z,10.63
2023-01-02T17:04:48.599Z,10.60
2023-01-02T17:06:04.892Z,10.58
2023-01-02T17:07:15.712Z,10.54
2023-01-02T17:08:25.219Z,10.54
2023-01-02T17:09:28.704Z,10.54
2023-01-02T17:10:36.842Z,10.52
2023-01-02T17:12:00.628Z,10.47
2023-01-02T17:13:05.135Z,10.47
2023-01-02T17:14:17.352Z,10.46
2023-01-02T17:15:22.096Z,10.44
2023-01-02T17:16:26.744Z,10.44
2023-01-02T17:17:32.415Z,10.43
2023-01-02T17:18:36.538Z,10.42
2023-01-02T17:19:40.379Z,10.41
2023-01-02T17:20:44.334Z,10.41
2023-01-02T17:21:50.551Z,10.42
2023-01-02T17:22:54.376Z,10.43
2023-01-02T17:23:57.982Z,10.42
2023-01-02T17:25:06.604Z,10.41
2023-01-02T17:26:10.818Z,10.39
2023-01-02T17:27:14.548Z,10.41
2023-01-02T17:28:18.480Z,10.39
2023-01-02T17:29:26.801Z,10.38
2023-01-02T17:30:30.424Z,10.39
2023-01-02T17:31:36.067Z,10.38
2023-01-02T17:32:44.187Z,10.36
2023-01-02T17:33:48.563Z,10.32
2023-01-02T17:34:54.853Z,10.31
2023-01-02T17:36:02.277Z,10.30
2023-01-02T17:37:05.748Z,10.31
2023-01-02T17:38:11.357Z,10.30
2023-01-02T17:39:15.437Z,10.29
2023-01-02T17:40:20.638Z,10.28
2023-01-02T17:41:29.673Z,10.29
2023-01-02T17:42:33.376Z,10.28
2023-01-02T17:43:36.884Z,10.28
2023-01-02T17:44:43.585Z,10.28
2023-01-02T17:45:47.298Z,10.25
2023-01-02T17:47:38.661Z,10.21
2023-01-02T17:48:23.906Z,10.21
2023-01-02T17:49:31.757Z,10.22
2023-01-02T17:50:44.156Z,10.19
2023-01-02T17:51:49.392Z,10.21
2023-01-02T17:52:53.542Z,10.19
2023-01-02T17:54:03.974Z,10.20
2023-01-02T17:55:14.283Z,10.20
2023-01-02T17:56:25.636Z,10.15
2023-01-02T17:57:34.743Z,10.19
2023-01-02T17:58:40.856Z,10.15
2023-01-02T17:59:45.163Z,10.14
2023-01-02T18:00:51.339Z,10.13
2023-01-02T18:01:59.785Z,10.11
2023-01-02T18:03:15.220Z,10.09
2023-01-02T18:04:22.027Z,10.02
2023-01-02T18:05:26.273Z,10.04
2023-01-02T18:06:33.013Z,10.01
2023-01-02T18:07:42.612Z,10.00
2023-01-02T18:08:46.436Z,9.96
2023-01-02T18:10:08.701Z,9.95
2023-01-02T18:11:18.672Z,9.92
2023-01-02T18:12:23.615Z,9.91
2023-01-02T18:13:31.956Z,9.88
2023-01-02T18:14:39.376Z,9.78
2023-01-02T18:15:43.361Z,9.76
2023-01-02T18:16:50.691Z,9.80
2023-01-02T18:17:59.213Z,9.76
2023-01-02T18:19:20.849Z,9.78
2023-01-02T18:20:28.495Z,9.80
2023-01-02T18:21:35.048Z,9.78
2023-01-02T18:22:51.260Z,9.74
2023-01-02T18:24:10.486Z,9.71
2023-01-02T18:25:43.763Z,9.64
2023-01-02T18:26:47.877Z,9.64
2023-01-02T18:27:53.822Z,9.62
2023-01-02T18:29:09.383Z,9.60
2023-01-02T18:30:25.423Z,9.62
2023-01-02T18:31:40.614Z,9.63
2023-01-02T18:32:48.258Z,9.62
2023-01-02T18:34:03.025Z,9.59
2023-01-02T18:35:56.882Z,9.63
2023-01-02T18:36:58.331Z,9.65
2023-01-02T18:38:29.280Z,9.68
2023-01-02T18:39:44.116Z,9.67
2023-01-02T18:40:53.492Z,9.66
2023-01-02T18:42:17.940Z,9.65
2023-01-02T18:43:45.280Z,9.63
2023-01-02T18:44:49.572Z,9.64
2023-01-02T18:46:00.667Z,9.66
2023-01-02T18:47:16.334Z,9.66
2023-01-02T18:48:24.077Z,9.66
2023-01-02T18:49:43.788Z,9.64
2023-01-02T18:51:00.275Z,9.65
2023-01-02T18:52:27.943Z,9.64
2023-01-02T18:53:46.483Z,9.70
2023-01-02T18:55:13.320Z,9.66
2023-01-02T18:56:30.993Z,9.69
2023-01-02T18:57:43.538Z,9.72
2023-01-02T18:59:06.925Z,9.75
2023-01-02T19:00:30.414Z,9.75
2023-01-02T19:01:45.445Z,9.77
2023-01-02T19:03:16.067Z,9.77
2023-01-02T19:04:28.150Z,9.79
2023-01-02T19:05:36.989Z,9.77
2023-01-02T19:06:57.042Z,9.78
2023-01-02T19:08:11.242Z,9.78
2023-01-02T19:09:35.218Z,9.78
2023-01-02T19:10:56.714Z,9.75
2023-01-02T19:12:45.493Z,9.75
2023-01-02T19:13:51.456Z,9.74
2023-01-02T19:15:25.407Z,9.74
2023-01-02T19:16:28.923Z,9.74
2023-01-02T19:17:34.833Z,9.69
2023-01-02T19:18:51.120Z,9.67
2023-01-02T19:19:56.182Z,9.68
2023-01-02T19:21:23.351Z,9.68
2023-01-02T19:22:34.847Z,9.68
2023-01-02T19:24:19.024Z,9.61
2023-01-02T19:25:26.417Z,9.66
2023-01-02T19:26:51.028Z,9.66
2023-01-02T19:27:58.509Z,9.63
2023-01-02T19:29:26.563Z,9.61
2023-01-02T19:30:38.553Z,9.56
2023-01-02T19:32:19.101Z,9.58
2023-01-02T19:33:40.692Z,9.59
2023-01-02T19:34:51.822Z,9.58
2023-01-02T19:36:03.419Z,9.55
2023-01-02T19:37:24.053Z,9.49
2023-01-02T19:38:31.823Z,9.45
2023-01-02T19:39:43.510Z,9.40
2023-01-02T19:40:47.160Z,9.42
2023-01-02T19:42:09.421Z,9.37
2023-01-02T19:43:13.183Z,9.39
2023-01-02T19:44:16.592Z,9.41
2023-01-02T19:45:26.150Z,9.38
2023-01-02T19:46:29.600Z,9.39
2023-01-02T19:47:37.223Z,9.42